createdAt,value
2018-05-21T00:00:18.249Z,10.40
2018-05-21T00:01:21.021Z,9.50
2018-05-21T00:02:23.512Z,9.27
2018-05-21T00:03:25.976Z,8.82
2018-05-21T00:04:28.468Z,10.85
2018-05-21T00:05:31.185Z,9.55
2018-05-21T00:06:33.687Z,10.45
2018-05-21T00:07:36.155Z,11.95
2018-05-21T00:08:38.652Z,10.23
2018-05-21T00:09:41.875Z,9.23
2018-05-21T00:10:44.680Z,10.23
2018-05-21T00:11:47.928Z,10.20
2018-05-21T00:12:50.404Z,10.02
2018-05-21T00:13:52.869Z,9.10
2018-05-21T00:14:55.332Z,9.43
2018-05-21T00:15:58.079Z,9.18
2018-05-21T00:17:00.571Z,9.18
2018-05-21T00:18:03.040Z,10.88
2018-05-21T00:19:05.511Z,10.23
2018-05-21T00:20:08.239Z,11.57
2018-05-21T00:21:11.015Z,10.63
2018-05-21T00:22:13.516Z,9.35
2018-05-21T00:23:15.980Z,9.38
2018-05-21T00:24:18.449Z,10.27
2018-05-21T00:25:21.178Z,8.80
2018-05-21T00:26:23.949Z,10.57
2018-05-21T00:27:26.444Z,9.55
2018-05-21T00:28:28.908Z,10.73
2018-05-21T00:29:32.104Z,9.65
2018-05-21T00:30:34.869Z,9.27
2018-05-21T00:31:37.373Z,9.68
2018-05-21T00:32:40.607Z,10.73
2018-05-21T00:33:43.072Z,9.88
2018-05-21T00:34:45.548Z,10.85
2018-05-21T00:35:48.278Z,11.38
2018-05-21T00:36:50.808Z,10.32
2018-05-21T00:37:54.044Z,11.12
2018-05-21T00:38:56.504Z,9.02
2018-05-21T00:39:58.968Z,9.13
2018-05-21T00:41:01.726Z,9.68
2018-05-21T00:42:04.247Z,10.32
2018-05-21T00:43:06.716Z,9.55
2018-05-21T00:44:10.692Z,8.80
2018-05-21T00:45:13.612Z,9.30
2018-05-21T00:46:16.402Z,9.27
2018-05-21T00:47:18.939Z,10.52
2018-05-21T00:48:21.395Z,9.25
2018-05-21T00:49:24.632Z,8.98
2018-05-21T00:50:27.387Z,8.73
2018-05-21T00:51:30.103Z,10.20
2018-05-21T00:52:33.359Z,11.85
2018-05-21T00:53:35.824Z,9.30
2018-05-21T00:54:38.288Z,9.45
2018-05-21T00:55:40.939Z,9.35
2018-05-21T00:56:43.451Z,9.95
2018-05-21T00:57:46.692Z,9.48
2018-05-21T00:58:49.156Z,9.82
2018-05-21T00:59:51.628Z,11.23
2018-05-21T01:00:54.143Z,10.13
2018-05-21T01:01:57.395Z,9.20
2018-05-21T01:02:59.868Z,9.23
2018-05-21T01:04:02.344Z,9.43
2018-05-21T01:05:04.808Z,9.73
2018-05-21T01:06:07.523Z,9.00
2018-05-21T01:07:10.053Z,8.57
2018-05-21T01:08:13.291Z,10.32
2018-05-21T01:09:15.775Z,8.45
2018-05-21T01:10:18.511Z,8.85
2018-05-21T01:11:21.279Z,9.63
2018-05-21T01:12:23.783Z,8.77
2018-05-21T01:13:26.251Z,11.68
2018-05-21T01:14:28.719Z,8.80
2018-05-21T01:15:31.445Z,8.55
2018-05-21T01:16:33.935Z,9.52
2018-05-21T01:17:36.428Z,9.63
2018-05-21T01:18:38.896Z,9.23
2018-05-21T01:19:41.364Z,9.75
2018-05-21T01:20:44.007Z,9.57
2018-05-21T01:21:47.260Z,8.65
2018-05-21T01:22:49.740Z,8.85
2018-05-21T01:23:52.202Z,9.13
2018-05-21T01:24:54.667Z,8.88
2018-05-21T01:25:57.414Z,8.88
2018-05-21T01:26:59.919Z,9.38
2018-05-21T01:28:02.400Z,8.57
2018-05-21T01:29:04.864Z,9.82
2018-05-21T01:30:07.330Z,9.07
2018-05-21T01:31:10.803Z,10.65
2018-05-21T01:32:14.060Z,10.13
2018-05-21T01:33:16.540Z,9.70
2018-05-21T01:34:19.004Z,9.32
2018-05-21T01:35:21.758Z,8.75
2018-05-21T01:36:24.616Z,8.73
2018-05-21T01:37:27.123Z,8.82
2018-05-21T01:38:29.612Z,9.23
2018-05-21T01:39:32.137Z,10.23
2018-05-21T01:40:35.586Z,10.38
2018-05-21T01:41:38.079Z,9.10
2018-05-21T01:42:40.543Z,8.95
2018-05-21T01:43:43.028Z,12.50
2018-05-21T01:44:45.495Z,10.27
2018-05-21T01:45:48.227Z,8.93
2018-05-21T01:46:50.729Z,10.05
2018-05-21T01:47:53.191Z,8.75
2018-05-21T01:48:55.680Z,8.82
2018-05-21T01:49:58.143Z,8.98
2018-05-21T01:51:00.757Z,9.05
2018-05-21T01:52:03.252Z,7.93
2018-05-21T01:53:05.720Z,10.18
2018-05-21T01:54:08.204Z,8.98
2018-05-21T01:55:10.847Z,8.15
2018-05-21T01:56:13.627Z,7.47
2018-05-21T01:57:16.100Z,8.35
2018-05-21T01:58:18.568Z,9.52
2018-05-21T01:59:21.047Z,8.55
2018-05-21T02:00:23.841Z,8.52
2018-05-21T02:01:26.625Z,8.18
2018-05-21T02:02:29.127Z,9.02
2018-05-21T02:03:31.596Z,8.48
2018-05-21T02:04:34.081Z,8.60
2018-05-21T02:05:36.947Z,8.27
2018-05-21T02:06:40.195Z,9.82
2018-05-21T02:07:42.667Z,8.18
2018-05-21T02:08:45.127Z,8.93
2018-05-21T02:09:47.608Z,7.93
2018-05-21T02:10:50.867Z,7.85
2018-05-21T02:11:53.377Z,9.05
2018-05-21T02:12:56.615Z,8.38
2018-05-21T02:13:59.079Z,8.63
2018-05-21T02:15:01.565Z,8.65
2018-05-21T02:16:04.298Z,8.18
2018-05-21T02:17:06.793Z,8.93
2018-05-21T02:18:09.260Z,8.88
2018-05-21T02:19:11.724Z,8.05
2018-05-21T02:20:14.565Z,7.90
2018-05-21T02:21:17.438Z,8.48
2018-05-21T02:22:19.939Z,8.25
2018-05-21T02:23:22.422Z,8.35
2018-05-21T02:24:24.888Z,8.07
2018-05-21T02:25:27.602Z,8.40
2018-05-21T02:26:30.408Z,7.87
2018-05-21T02:27:32.904Z,8.35
2018-05-21T02:28:36.179Z,8.18
2018-05-21T02:29:38.643Z,7.87
2018-05-21T02:30:41.405Z,8.68
2018-05-21T02:31:43.890Z,8.07
2018-05-21T02:32:47.124Z,9.10
2018-05-21T02:33:49.589Z,8.32
2018-05-21T02:34:52.057Z,8.88
2018-05-21T02:35:54.907Z,9.23
2018-05-21T02:36:57.394Z,8.15
2018-05-21T02:37:59.851Z,8.00
2018-05-21T02:39:02.320Z,8.23
2018-05-21T02:40:04.788Z,9.45
2018-05-21T02:41:07.574Z,10.18
2018-05-21T02:42:10.057Z,8.30
2018-05-21T02:43:13.297Z,8.15
2018-05-21T02:44:15.778Z,7.62
2018-05-21T02:45:18.464Z,9.02
2018-05-21T02:46:21.289Z,7.78
2018-05-21T02:47:23.788Z,7.55
2018-05-21T02:48:26.251Z,7.22
2018-05-21T02:49:28.716Z,9.68
2018-05-21T02:50:31.453Z,8.40
2018-05-21T02:51:33.960Z,8.23
2018-05-21T02:52:36.423Z,7.80
2018-05-21T02:53:38.891Z,8.50
2018-05-21T02:54:41.358Z,6.93
2018-05-21T02:55:44.183Z,7.75
2018-05-21T02:56:46.687Z,7.85
2018-05-21T02:57:49.939Z,7.95
2018-05-21T02:58:52.403Z,8.85
2018-05-21T02:59:54.900Z,8.00
2018-05-21T03:00:57.734Z,7.68
2018-05-21T03:02:00.240Z,8.48
2018-05-21T03:03:02.700Z,8.05
2018-05-21T03:04:05.168Z,7.93
2018-05-21T03:05:08.000Z,8.85
2018-05-21T03:06:11.386Z,9.02
2018-05-21T03:07:13.908Z,9.48
2018-05-21T03:08:16.375Z,8.13
2018-05-21T03:09:18.832Z,8.40
2018-05-21T03:10:21.599Z,8.35
2018-05-21T03:11:25.075Z,8.45
2018-05-21T03:12:27.583Z,7.70
2018-05-21T03:13:30.814Z,7.50
2018-05-21T03:14:33.280Z,7.97
2018-05-21T03:15:35.923Z,10.13
2018-05-21T03:16:38.421Z,7.90
2018-05-21T03:17:40.904Z,8.32
2018-05-21T03:18:44.871Z,7.90
2018-05-21T03:19:47.344Z,8.30
2018-05-21T03:20:50.123Z,7.65
2018-05-21T03:21:52.604Z,7.95
2018-05-21T03:22:55.092Z,7.40
2018-05-21T03:23:58.324Z,8.35
2018-05-21T03:25:00.796Z,8.80
2018-05-21T03:26:03.530Z,8.98
2018-05-21T03:27:06.020Z,7.37
2018-05-21T03:28:08.500Z,8.70
2018-05-21T03:29:10.961Z,7.30
2018-05-21T03:30:14.309Z,7.97
2018-05-21T03:31:17.080Z,7.97
2018-05-21T03:32:19.576Z,8.75
2018-05-21T03:33:22.060Z,7.45
2018-05-21T03:34:24.526Z,7.65
2018-05-21T03:35:27.284Z,8.05
2018-05-21T03:36:30.016Z,7.20
2018-05-21T03:37:32.516Z,8.27
2018-05-21T03:38:35.004Z,7.60
2018-05-21T03:39:37.470Z,8.02
2018-05-21T03:40:40.282Z,7.30
2018-05-21T03:41:42.784Z,6.70
2018-05-21T03:42:45.248Z,6.55
2018-05-21T03:43:47.727Z,6.15
2018-05-21T03:44:50.195Z,6.70
2018-05-21T03:45:52.913Z,8.02
2018-05-21T03:46:55.412Z,6.60
2018-05-21T03:47:57.873Z,8.15
2018-05-21T03:49:00.356Z,6.40
2018-05-21T03:50:02.820Z,6.93
2018-05-21T03:51:05.949Z,7.05
2018-05-21T03:52:08.440Z,6.37
2018-05-21T03:53:10.915Z,6.65
2018-05-21T03:54:13.396Z,6.15
2018-05-21T03:55:16.111Z,8.73
2018-05-21T03:56:18.781Z,6.78
2018-05-21T03:57:21.272Z,6.95
2018-05-21T03:58:35.678Z,7.07
2018-05-21T03:59:50.892Z,6.57
2018-05-21T04:01:05.503Z,6.35
2018-05-21T04:02:20.068Z,5.75
2018-05-21T04:03:34.407Z,5.70
2018-05-21T04:04:38.508Z,7.30
2018-05-21T04:05:41.369Z,5.90
2018-05-21T04:06:43.904Z,7.05
2018-05-21T04:07:47.128Z,7.47
2018-05-21T04:08:49.595Z,7.15
2018-05-21T04:09:52.057Z,6.50
2018-05-21T04:10:54.919Z,5.93
2018-05-21T04:11:57.407Z,6.22
2018-05-21T04:12:59.896Z,6.32
2018-05-21T04:14:02.371Z,6.75
2018-05-21T04:15:04.836Z,5.65
2018-05-21T04:16:07.550Z,5.70
2018-05-21T04:17:10.035Z,6.35
2018-05-21T04:18:12.504Z,7.50
2018-05-21T04:19:14.968Z,6.50
2018-05-21T04:20:17.711Z,5.60
2018-05-21T04:21:20.585Z,6.25
2018-05-21T04:22:23.091Z,6.30
2018-05-21T04:23:25.556Z,5.28
2018-05-21T04:24:28.017Z,5.35
2018-05-21T04:25:30.754Z,5.43
2018-05-21T04:26:34.803Z,5.53
2018-05-21T04:27:37.269Z,7.53
2018-05-21T04:28:39.733Z,5.93
2018-05-21T04:29:42.200Z,5.65
2018-05-21T04:30:45.018Z,6.28
2018-05-21T04:31:47.523Z,5.28
2018-05-21T04:32:49.988Z,5.43
2018-05-21T04:33:52.452Z,5.80
2018-05-21T04:34:54.919Z,6.03
2018-05-21T04:35:57.687Z,4.93
2018-05-21T04:37:00.184Z,7.47
2018-05-21T04:38:03.416Z,5.15
2018-05-21T04:39:05.884Z,7.75
2018-05-21T04:40:08.627Z,6.97
2018-05-21T04:41:12.332Z,4.78
2018-05-21T04:42:14.832Z,6.80
2018-05-21T04:43:17.303Z,5.22
2018-05-21T04:44:20.532Z,5.97
2018-05-21T04:45:23.303Z,8.48
2018-05-21T04:46:26.074Z,4.82
2018-05-21T04:47:28.600Z,6.28
2018-05-21T04:48:31.059Z,5.03
2018-05-21T04:49:34.291Z,5.12
2018-05-21T04:50:37.062Z,5.97
2018-05-21T04:51:39.547Z,7.15
2018-05-21T04:52:42.028Z,5.78
2018-05-21T04:53:44.488Z,5.28
2018-05-21T04:54:46.956Z,6.30
2018-05-21T04:55:49.686Z,6.68
2018-05-21T04:56:52.180Z,6.30
2018-05-21T04:57:55.568Z,6.57
2018-05-21T04:58:58.036Z,5.28
2018-05-21T05:00:00.500Z,6.18
2018-05-21T05:01:03.237Z,6.85
2018-05-21T05:02:05.744Z,5.50
2018-05-21T05:03:08.224Z,6.82
2018-05-21T05:04:10.688Z,4.60
2018-05-21T05:05:13.502Z,4.60
2018-05-21T05:06:16.216Z,4.82
2018-05-21T05:07:19.475Z,4.97
2018-05-21T05:08:21.956Z,4.30
2018-05-21T05:09:24.426Z,5.00
2018-05-21T05:10:27.056Z,4.75
2018-05-21T05:11:29.823Z,5.10
2018-05-21T05:12:32.323Z,4.22
2018-05-21T05:13:34.820Z,7.53
2018-05-21T05:14:38.792Z,4.97
2018-05-21T05:15:41.524Z,5.40
2018-05-21T05:16:44.020Z,5.93
2018-05-21T05:17:46.492Z,4.60
2018-05-21T05:18:48.972Z,5.37
2018-05-21T05:19:51.440Z,5.12
2018-05-21T05:20:54.151Z,4.75
2018-05-21T05:21:56.652Z,7.05
2018-05-21T05:22:59.116Z,4.65
2018-05-21T05:24:01.600Z,5.43
2018-05-21T05:25:04.064Z,4.82
2018-05-21T05:26:06.883Z,4.78
2018-05-21T05:27:09.385Z,5.40
2018-05-21T05:28:11.855Z,6.47
2018-05-21T05:29:14.331Z,6.20
2018-05-21T05:30:17.251Z,4.40
2018-05-21T05:31:20.100Z,4.87
2018-05-21T05:32:22.591Z,7.60
2018-05-21T05:33:25.055Z,5.15
2018-05-21T05:34:27.532Z,4.22
2018-05-21T05:35:30.289Z,4.95
2018-05-21T05:36:32.984Z,5.40
2018-05-21T05:37:35.448Z,3.50
2018-05-21T05:38:37.915Z,4.05
2018-05-21T05:39:40.396Z,7.45
2018-05-21T05:40:43.227Z,4.47
2018-05-21T05:41:45.736Z,5.43
2018-05-21T05:42:48.200Z,3.45
2018-05-21T05:43:50.668Z,2.75
2018-05-21T05:44:53.146Z,3.50
2018-05-21T05:45:56.674Z,3.58
2018-05-21T05:46:59.160Z,3.15
2018-05-21T05:48:01.636Z,3.25
2018-05-21T05:49:04.100Z,3.05
2018-05-21T05:50:06.632Z,2.62
2018-05-21T05:51:09.300Z,3.97
2018-05-21T05:52:11.801Z,2.75
2018-05-21T05:53:14.269Z,2.70
2018-05-21T05:54:16.736Z,2.35
2018-05-21T05:55:19.463Z,3.10
2018-05-21T05:56:22.235Z,3.10
2018-05-21T05:57:24.731Z,3.50
2018-05-21T05:58:27.200Z,3.45
2018-05-21T05:59:29.663Z,4.22
2018-05-21T06:00:32.502Z,3.28
2018-05-21T06:01:34.984Z,2.60
2018-05-21T06:02:37.452Z,2.65
2018-05-21T06:03:39.982Z,3.50
2018-05-21T06:04:42.400Z,2.25
2018-05-21T06:05:46.765Z,2.40
2018-05-21T06:06:49.259Z,2.97
2018-05-21T06:07:51.727Z,4.07
2018-05-21T06:08:54.195Z,2.80
2018-05-21T06:09:56.660Z,5.10
2018-05-21T06:10:59.908Z,2.65
2018-05-21T06:12:02.410Z,2.62
2018-05-21T06:13:04.875Z,2.75
2018-05-21T06:14:07.340Z,2.90
2018-05-21T06:15:10.073Z,2.45
2018-05-21T06:16:12.947Z,3.42
2018-05-21T06:17:15.522Z,3.15
2018-05-21T06:18:17.996Z,3.08
2018-05-21T06:19:20.456Z,2.72
2018-05-21T06:20:23.212Z,2.90
2018-05-21T06:21:25.982Z,3.60
2018-05-21T06:22:28.464Z,3.25
2018-05-21T06:23:30.940Z,4.55
2018-05-21T06:24:33.408Z,3.10
2018-05-21T06:25:36.148Z,2.58
2018-05-21T06:26:38.720Z,2.58
2018-05-21T06:27:41.203Z,2.60
2018-05-21T06:28:43.668Z,3.08
2018-05-21T06:29:46.140Z,3.15
2018-05-21T06:30:48.879Z,2.87
2018-05-21T06:31:51.399Z,5.55
2018-05-21T06:32:53.864Z,3.62
2018-05-21T06:33:56.579Z,2.55
2018-05-21T06:34:59.792Z,2.55
2018-05-21T06:36:02.588Z,2.92
2018-05-21T06:37:05.864Z,2.47
2018-05-21T06:38:08.328Z,3.15
2018-05-21T06:39:10.815Z,2.80
2018-05-21T06:40:13.925Z,3.12
2018-05-21T06:41:16.594Z,2.95
2018-05-21T06:42:19.100Z,2.50
2018-05-21T06:43:21.603Z,3.50
2018-05-21T06:44:24.836Z,2.67
2018-05-21T06:45:27.680Z,2.78
2018-05-21T06:46:30.504Z,3.00
2018-05-21T06:47:33.017Z,2.70
2018-05-21T06:48:35.495Z,2.70
2018-05-21T06:49:37.964Z,2.80
2018-05-21T06:50:40.618Z,4.25
2018-05-21T06:51:43.115Z,3.05
2018-05-21T06:52:45.600Z,2.53
2018-05-21T06:53:48.060Z,3.60
2018-05-21T06:54:50.537Z,2.72
2018-05-21T06:55:54.083Z,3.03
2018-05-21T06:56:56.567Z,3.37
2018-05-21T06:57:59.052Z,2.97
2018-05-21T06:59:01.524Z,3.85
2018-05-21T07:00:04.755Z,3.47
2018-05-21T07:01:08.554Z,4.05
2018-05-21T07:02:11.048Z,3.03
2018-05-21T07:03:13.527Z,3.83
2018-05-21T07:04:15.992Z,3.95
2018-05-21T07:05:18.697Z,2.90
2018-05-21T07:06:22.129Z,3.45
2018-05-21T07:07:25.376Z,2.37
2018-05-21T07:08:27.887Z,2.60
2018-05-21T07:09:30.351Z,3.17
2018-05-21T07:10:35.320Z,2.60
2018-05-21T07:11:37.813Z,3.53
2018-05-21T07:12:40.283Z,2.60
2018-05-21T07:13:42.772Z,4.95
2018-05-21T07:14:45.301Z,3.97
2018-05-21T07:15:48.050Z,6.97
2018-05-21T07:16:50.541Z,3.10
2018-05-21T07:17:53.007Z,4.57
2018-05-21T07:18:55.499Z,3.17
2018-05-21T07:19:57.960Z,3.67
2018-05-21T07:21:00.698Z,3.78
2018-05-21T07:22:03.187Z,2.95
2018-05-21T07:23:05.648Z,5.07
2018-05-21T07:24:08.132Z,2.97
2018-05-21T07:25:10.850Z,3.12
2018-05-21T07:26:13.621Z,5.12
2018-05-21T07:27:16.109Z,4.90
2018-05-21T07:28:18.573Z,4.70
2018-05-21T07:29:21.069Z,4.82
2018-05-21T07:30:23.778Z,3.03
2018-05-21T07:31:26.614Z,2.95
2018-05-21T07:32:29.863Z,6.65
2018-05-21T07:33:32.336Z,4.15
2018-05-21T07:34:34.824Z,3.05
2018-05-21T07:35:37.583Z,4.18
2018-05-21T07:36:40.068Z,2.97
2018-05-21T07:37:43.304Z,7.03
2018-05-21T07:38:45.770Z,3.58
2018-05-21T07:39:48.267Z,3.58
2018-05-21T07:40:51.012Z,3.40
2018-05-21T07:41:53.503Z,3.40
2018-05-21T07:42:56.162Z,4.68
2018-05-21T07:43:58.632Z,3.22
2018-05-21T07:45:01.120Z,3.22
2018-05-21T07:46:05.911Z,6.05
2018-05-21T07:47:09.160Z,4.00
2018-05-21T07:48:11.627Z,5.80
2018-05-21T07:49:14.092Z,3.50
2018-05-21T07:50:16.846Z,4.15
2018-05-21T07:51:21.028Z,4.30
2018-05-21T07:52:24.260Z,3.53
2018-05-21T07:53:26.719Z,3.22
2018-05-21T07:54:29.187Z,3.78
2018-05-21T07:55:32.032Z,3.80
2018-05-21T07:56:34.548Z,3.60
2018-05-21T07:57:37.017Z,3.75
2018-05-21T07:58:39.483Z,4.32
2018-05-21T07:59:41.944Z,3.40
2018-05-21T08:00:44.685Z,6.28
2018-05-21T08:01:47.176Z,5.28
2018-05-21T08:02:49.640Z,3.55
2018-05-21T08:03:52.124Z,5.72
2018-05-21T08:04:55.360Z,3.60
2018-05-21T08:05:58.149Z,5.60
2018-05-21T08:07:00.628Z,5.53
2018-05-21T08:08:03.099Z,3.87
2018-05-21T08:09:07.071Z,3.67
2018-05-21T08:10:09.859Z,3.50
2018-05-21T08:11:12.703Z,5.47
2018-05-21T08:12:15.183Z,5.03
2018-05-21T08:13:17.647Z,6.78
2018-05-21T08:14:20.112Z,3.70
2018-05-21T08:15:23.870Z,4.78
2018-05-21T08:16:27.291Z,4.70
2018-05-21T08:17:29.751Z,4.20
2018-05-21T08:18:32.219Z,4.25
2018-05-21T08:19:34.688Z,4.95
2018-05-21T08:20:37.420Z,5.00
2018-05-21T08:21:39.940Z,8.23
2018-05-21T08:22:42.420Z,4.68
2018-05-21T08:23:45.652Z,6.65
2018-05-21T08:24:48.112Z,5.28
2018-05-21T08:25:51.789Z,3.60
2018-05-21T08:26:54.299Z,6.70
2018-05-21T08:27:56.760Z,3.42
2018-05-21T08:28:59.224Z,5.03
2018-05-21T08:30:01.744Z,6.45
2018-05-21T08:31:04.519Z,5.55
2018-05-21T08:32:07.008Z,4.12
2018-05-21T08:33:09.478Z,5.18
2018-05-21T08:34:11.940Z,3.62
2018-05-21T08:35:14.683Z,3.72
2018-05-21T08:36:17.560Z,5.53
2018-05-21T08:37:20.059Z,3.47
2018-05-21T08:38:22.527Z,3.95
2018-05-21T08:39:24.987Z,4.93
2018-05-21T08:40:27.769Z,4.50
2018-05-21T08:41:31.312Z,4.00
2018-05-21T08:42:33.859Z,3.80
2018-05-21T08:43:37.116Z,3.95
2018-05-21T08:44:39.584Z,5.00
2018-05-21T08:45:43.114Z,5.20
2018-05-21T08:46:46.412Z,4.00
2018-05-21T08:47:48.896Z,5.10
2018-05-21T08:48:51.503Z,6.90
2018-05-21T08:49:53.840Z,6.20
2018-05-21T08:50:56.663Z,8.20
2018-05-21T08:51:59.147Z,5.40
2018-05-21T08:53:01.640Z,4.55
2018-05-21T08:54:04.108Z,8.23
2018-05-21T08:55:06.596Z,4.82
2018-05-21T08:56:10.726Z,4.15
2018-05-21T08:57:13.224Z,5.50
2018-05-21T08:58:15.703Z,5.70
2018-05-21T08:59:18.168Z,4.85
2018-05-21T09:00:21.001Z,3.85
2018-05-21T09:01:23.804Z,5.95
2018-05-21T09:02:26.287Z,4.18
2018-05-21T09:03:28.768Z,5.45
2018-05-21T09:04:31.996Z,4.30
2018-05-21T09:05:36.079Z,5.93
2018-05-21T09:06:38.577Z,5.15
2018-05-21T09:07:41.042Z,6.57
2018-05-21T09:08:43.528Z,4.90
2018-05-21T09:09:45.987Z,4.07
2018-05-21T09:10:48.705Z,4.20
2018-05-21T09:11:51.204Z,3.50
2018-05-21T09:12:53.672Z,4.40
2018-05-21T09:13:56.155Z,3.95
2018-05-21T09:14:58.620Z,5.15
2018-05-21T09:16:01.436Z,4.95
2018-05-21T09:17:03.941Z,4.43
2018-05-21T09:18:06.414Z,5.05
2018-05-21T09:19:08.891Z,4.53
2018-05-21T09:20:12.464Z,4.47
2018-05-21T09:21:16.114Z,4.35
2018-05-21T09:22:18.608Z,4.87
2018-05-21T09:23:21.074Z,5.03
2018-05-21T09:24:23.560Z,4.53
2018-05-21T09:25:27.107Z,4.53
2018-05-21T09:26:29.592Z,3.62
2018-05-21T09:27:32.063Z,3.60
2018-05-21T09:28:34.524Z,3.85
2018-05-21T09:29:37.008Z,4.82
2018-05-21T09:30:39.769Z,5.03
2018-05-21T09:31:42.244Z,3.80
2018-05-21T09:32:44.712Z,4.75
2018-05-21T09:33:47.175Z,4.53
2018-05-21T09:34:49.656Z,3.70
2018-05-21T09:35:53.172Z,5.40
2018-05-21T09:36:55.676Z,7.70
2018-05-21T09:37:58.142Z,4.60
2018-05-21T09:39:00.600Z,6.55
2018-05-21T09:40:03.090Z,5.75
2018-05-21T09:41:05.780Z,7.35
2018-05-21T09:42:08.282Z,4.28
2018-05-21T09:43:10.744Z,3.83
2018-05-21T09:44:13.223Z,5.07
2018-05-21T09:45:16.782Z,4.65
2018-05-21T09:46:19.555Z,6.82
2018-05-21T09:47:22.049Z,4.35
2018-05-21T09:48:24.512Z,5.90
2018-05-21T09:49:26.977Z,5.07
2018-05-21T09:50:29.722Z,4.00
2018-05-21T09:51:32.391Z,6.12
2018-05-21T09:52:34.892Z,4.05
2018-05-21T09:53:37.356Z,4.55
2018-05-21T09:54:39.820Z,4.43
2018-05-21T09:55:42.590Z,5.85
2018-05-21T09:56:45.072Z,3.97
2018-05-21T09:57:47.536Z,5.70
2018-05-21T09:58:50.767Z,4.20
2018-05-21T09:59:53.235Z,4.93
2018-05-21T10:00:56.614Z,6.78
2018-05-21T10:01:59.107Z,4.75
2018-05-21T10:03:01.577Z,5.62
2018-05-21T10:04:04.061Z,4.70
2018-05-21T10:05:06.524Z,5.00
2018-05-21T10:06:09.347Z,5.18
2018-05-21T10:07:11.852Z,5.65
2018-05-21T10:08:14.319Z,4.45
2018-05-21T10:09:16.780Z,5.57
2018-05-21T10:10:19.432Z,4.93
2018-05-21T10:11:22.280Z,3.40
2018-05-21T10:12:24.781Z,4.07
2018-05-21T10:13:27.244Z,3.92
2018-05-21T10:14:29.708Z,3.70
2018-05-21T10:15:32.487Z,5.00
2018-05-21T10:16:35.760Z,3.50
2018-05-21T10:17:38.226Z,3.72
2018-05-21T10:18:40.696Z,4.28
2018-05-21T10:19:43.160Z,5.18
2018-05-21T10:20:45.993Z,4.20
2018-05-21T10:21:48.515Z,3.85
2018-05-21T10:22:50.984Z,4.18
2018-05-21T10:23:54.215Z,4.45
2018-05-21T10:24:56.679Z,4.05
2018-05-21T10:25:59.536Z,5.22
2018-05-21T10:27:02.032Z,3.60
2018-05-21T10:28:04.500Z,7.28
2018-05-21T10:29:06.960Z,4.10
2018-05-21T10:30:09.605Z,5.93
2018-05-21T10:31:12.382Z,3.87
2018-05-21T10:32:14.904Z,5.10
2018-05-21T10:33:18.136Z,3.97
2018-05-21T10:34:20.599Z,4.12
2018-05-21T10:35:23.293Z,3.70
2018-05-21T10:36:26.059Z,5.25
2018-05-21T10:37:28.560Z,4.57
2018-05-21T10:38:31.025Z,3.50
2018-05-21T10:39:34.256Z,5.30
2018-05-21T10:40:36.950Z,3.95
2018-05-21T10:41:40.940Z,4.22
2018-05-21T10:42:43.428Z,5.00
2018-05-21T10:43:45.912Z,3.80
2018-05-21T10:44:49.144Z,6.55
2018-05-21T10:45:51.807Z,3.72
2018-05-21T10:46:54.296Z,4.32
2018-05-21T10:47:56.801Z,3.60
2018-05-21T10:49:00.032Z,4.80
2018-05-21T10:50:02.503Z,3.40
2018-05-21T10:51:05.165Z,4.03
2018-05-21T10:52:09.159Z,4.97
2018-05-21T10:53:11.640Z,4.10
2018-05-21T10:54:14.104Z,5.62
2018-05-21T10:55:16.940Z,3.83
2018-05-21T10:56:20.574Z,7.40
2018-05-21T10:57:24.347Z,3.78
2018-05-21T10:58:26.844Z,11.02
2018-05-21T10:59:30.468Z,4.35
2018-05-21T11:00:35.139Z,5.40
2018-05-21T11:01:38.425Z,4.60
2018-05-21T11:02:41.672Z,4.87
2018-05-21T11:03:44.152Z,4.20
2018-05-21T11:04:46.621Z,5.32
2018-05-21T11:05:49.274Z,3.97
2018-05-21T11:06:51.776Z,3.65
2018-05-21T11:07:54.244Z,5.47
2018-05-21T11:08:56.732Z,5.85
2018-05-21T11:09:59.963Z,4.37
2018-05-21T11:11:02.711Z,10.35
2018-05-21T11:12:05.299Z,5.40
2018-05-21T11:13:08.471Z,3.45
2018-05-21T11:14:10.956Z,4.80
2018-05-21T11:15:13.738Z,4.57
2018-05-21T11:16:17.282Z,6.87
2018-05-21T11:17:19.780Z,3.97
2018-05-21T11:18:22.248Z,4.00
2018-05-21T11:19:24.732Z,5.25
2018-05-21T11:20:27.447Z,4.60
2018-05-21T11:21:30.217Z,5.62
2018-05-21T11:22:32.715Z,4.35
2018-05-21T11:23:35.180Z,3.92
2018-05-21T11:24:37.696Z,7.12
2018-05-21T11:25:41.117Z,4.65
2018-05-21T11:26:43.616Z,3.47
2018-05-21T11:27:46.086Z,3.65
2018-05-21T11:28:48.548Z,3.60
2018-05-21T11:29:51.033Z,4.37
2018-05-21T11:30:55.306Z,4.25
2018-05-21T11:31:58.607Z,5.15
2018-05-21T11:33:01.036Z,3.50
2018-05-21T11:34:03.524Z,3.72
2018-05-21T11:35:07.586Z,6.25
2018-05-21T11:36:10.355Z,4.30
2018-05-21T11:37:12.843Z,3.60
2018-05-21T11:38:15.311Z,3.42
2018-05-21T11:39:17.796Z,5.53
2018-05-21T11:40:20.614Z,3.65
2018-05-21T11:41:23.385Z,3.30
2018-05-21T11:42:25.884Z,3.22
2018-05-21T11:43:28.354Z,4.20
2018-05-21T11:44:30.844Z,4.05
2018-05-21T11:45:34.296Z,3.08
2018-05-21T11:46:36.788Z,3.33
2018-05-21T11:47:39.252Z,4.93
2018-05-21T11:48:43.228Z,3.58
2018-05-21T11:49:45.715Z,3.78
2018-05-21T11:50:49.196Z,4.97
2018-05-21T11:51:53.339Z,5.00
2018-05-21T11:52:55.807Z,3.03
2018-05-21T11:53:58.283Z,3.50
2018-05-21T11:55:00.779Z,4.30
2018-05-21T11:56:03.415Z,3.80
2018-05-21T11:57:05.912Z,3.50
2018-05-21T11:58:08.377Z,3.92
2018-05-21T11:59:10.909Z,3.17
2018-05-21T12:00:13.680Z,3.60
2018-05-21T12:01:16.554Z,2.87
2018-05-21T12:02:19.059Z,4.00
2018-05-21T12:03:21.531Z,3.62
2018-05-21T12:04:24.003Z,3.60
2018-05-21T12:05:26.758Z,3.62
2018-05-21T12:06:31.128Z,3.20
2018-05-21T12:07:33.618Z,3.53
2018-05-21T12:08:36.084Z,2.92
2018-05-21T12:09:38.554Z,3.12
2018-05-21T12:10:41.458Z,5.00
2018-05-21T12:11:44.705Z,4.53
2018-05-21T12:12:47.176Z,2.83
2018-05-21T12:13:49.649Z,3.40
2018-05-21T12:14:52.116Z,4.87
2018-05-21T12:15:54.948Z,3.22
2018-05-21T12:16:57.444Z,3.67
2018-05-21T12:17:59.918Z,3.28
2018-05-21T12:19:02.397Z,4.32
2018-05-21T12:20:05.644Z,6.18
2018-05-21T12:21:08.495Z,3.12
2018-05-21T12:22:11.006Z,3.53
2018-05-21T12:23:13.483Z,3.35
2018-05-21T12:24:17.460Z,4.97
2018-05-21T12:25:19.977Z,3.55
2018-05-21T12:26:22.534Z,4.07
2018-05-21T12:27:25.772Z,4.80
2018-05-21T12:28:28.243Z,3.42
2018-05-21T12:29:30.716Z,3.17
2018-05-21T12:30:33.365Z,4.05
2018-05-21T12:31:36.653Z,4.25
2018-05-21T12:32:39.123Z,5.12
2018-05-21T12:33:41.596Z,2.72
2018-05-21T12:34:44.068Z,3.40
2018-05-21T12:35:48.330Z,2.85
2018-05-21T12:36:51.640Z,4.37
2018-05-21T12:37:54.111Z,4.62
2018-05-21T12:38:56.582Z,4.30
2018-05-21T12:39:59.059Z,3.17
2018-05-21T12:41:02.528Z,3.28
2018-05-21T12:42:05.796Z,3.42
2018-05-21T12:43:08.278Z,3.08
2018-05-21T12:44:10.750Z,3.83
2018-05-21T12:45:14.181Z,2.80
2018-05-21T12:46:17.671Z,3.42
2018-05-21T12:47:20.196Z,4.30
2018-05-21T12:48:22.664Z,2.70
2018-05-21T12:49:25.911Z,3.78
2018-05-21T12:50:28.655Z,2.97
2018-05-21T12:51:31.528Z,3.17
2018-05-21T12:52:34.052Z,3.42
2018-05-21T12:53:38.027Z,7.90
2018-05-21T12:54:40.560Z,3.12
2018-05-21T12:55:44.089Z,3.75
2018-05-21T12:56:46.569Z,3.05
2018-05-21T12:57:49.055Z,4.87
2018-05-21T12:58:52.292Z,4.30
2018-05-21T12:59:54.760Z,4.05
2018-05-21T13:00:57.634Z,5.18
2018-05-21T13:02:00.891Z,4.05
2018-05-21T13:03:03.376Z,3.20
2018-05-21T13:04:05.844Z,6.37
2018-05-21T13:05:08.494Z,5.18
2018-05-21T13:06:12.071Z,3.42
2018-05-21T13:07:14.575Z,3.42
2018-05-21T13:08:17.064Z,3.28
2018-05-21T13:09:20.307Z,2.92
2018-05-21T13:10:23.154Z,3.33
2018-05-21T13:11:25.925Z,2.87
2018-05-21T13:12:28.432Z,2.72
2018-05-21T13:13:30.920Z,3.33
2018-05-21T13:14:34.168Z,2.62
2018-05-21T13:15:37.011Z,2.90
2018-05-21T13:16:39.499Z,5.05
2018-05-21T13:17:41.983Z,4.68
2018-05-21T13:18:44.475Z,5.15
2018-05-21T13:19:47.712Z,2.95
2018-05-21T13:20:50.365Z,7.68
2018-05-21T13:21:52.852Z,4.87
2018-05-21T13:22:55.320Z,4.93
2018-05-21T13:23:57.868Z,8.68
2018-05-21T13:25:01.056Z,7.70
2018-05-21T13:26:04.637Z,4.57
2018-05-21T13:27:07.121Z,5.05
2018-05-21T13:28:09.596Z,3.15
2018-05-21T13:29:12.084Z,5.37
2018-05-21T13:30:16.014Z,5.45
2018-05-21T13:31:20.219Z,5.10
2018-05-21T13:32:22.716Z,5.55
2018-05-21T13:33:25.184Z,3.55
2018-05-21T13:34:27.670Z,2.75
2018-05-21T13:35:30.383Z,5.15
2018-05-21T13:36:33.111Z,3.47
2018-05-21T13:37:35.579Z,6.40
2018-05-21T13:38:38.816Z,9.15
2018-05-21T13:39:41.300Z,4.30
2018-05-21T13:40:44.037Z,4.93
2018-05-21T13:41:46.520Z,2.90
2018-05-21T13:42:48.996Z,3.58
2018-05-21T13:43:51.463Z,5.85
2018-05-21T13:44:53.956Z,4.05
2018-05-21T13:45:56.766Z,6.72
2018-05-21T13:46:59.268Z,6.30
2018-05-21T13:48:01.744Z,3.17
2018-05-21T13:49:04.984Z,3.20
2018-05-21T13:50:07.558Z,3.22
2018-05-21T13:51:10.268Z,3.97
2018-05-21T13:52:13.549Z,5.05
2018-05-21T13:53:16.016Z,5.28
2018-05-21T13:54:18.487Z,3.42